Aviation Digital Data Service (ADDS)

Output produced by METARs form (0507 UTC 21 January 2019)
found at http://www.aviationweather.gov/metar/data/
 
METAR text: ZSNB 210500Z 35003MPS 310V030 CAVOK 08/M06 Q1028 NOSIG
Conditions at: ZSNB (NINGBO/LISHE , CN) observed 0500 UTC 21 January 2019
Temperature: 8.0°C (46°F)
Dewpoint: -6.0°C (21°F) [RH = 36%]
Pressure (altimeter): 30.35 inches Hg (1028.0 mb)
Winds: from the N (350 degrees) at 7 MPH (6 knots; 3.1 m/s)
Visibility: 6 or more miles (10+ km)
Ceiling: ceiling and visibility are OK
Clouds: unknown
Weather: no significant weather observed at this time

METAR text: ZSNB 210400Z 35004MPS 290V030 CAVOK 08/M07 Q1029 NOSIG
Conditions at: ZSNB (NINGBO/LISHE , CN) observed 0400 UTC 21 January 2019
Temperature: 8.0°C (46°F)
Dewpoint: -7.0°C (19°F) [RH = 34%]
Pressure (altimeter): 30.38 inches Hg (1029.0 mb)
Winds: from the N (350 degrees) at 9 MPH (8 knots; 4.1 m/s)
Visibility: 6 or more miles (10+ km)
Ceiling: ceiling and visibility are OK
Clouds: unknown
Weather: no significant weather observed at this time

METAR text: ZSNB 210300Z 34003MPS 310V020 CAVOK 07/M05 Q1030 NOSIG
Conditions at: ZSNB (NINGBO/LISHE , CN) observed 0300 UTC 21 January 2019
Temperature: 7.0°C (45°F)
Dewpoint: -5.0°C (23°F) [RH = 42%]
Pressure (altimeter): 30.41 inches Hg (1030.0 mb)
Winds: from the NNW (340 degrees) at 7 MPH (6 knots; 3.1 m/s)
Visibility: 6 or more miles (10+ km)
Ceiling: ceiling and visibility are OK
Clouds: unknown
Weather: no significant weather observed at this time

METAR text: ZSNB 210200Z 35004MPS 310V030 CAVOK 06/M07 Q1031 NOSIG
Conditions at: ZSNB (NINGBO/LISHE , CN) observed 0200 UTC 21 January 2019
Temperature: 6.0°C (43°F)
Dewpoint: -7.0°C (19°F) [RH = 39%]
Pressure (altimeter): 30.44 inches Hg (1031.0 mb)
Winds: from the N (350 degrees) at 9 MPH (8 knots; 4.1 m/s)
Visibility: 6 or more miles (10+ km)
Ceiling: ceiling and visibility are OK
Clouds: unknown
Weather: no significant weather observed at this time

METAR text: ZSNB 210100Z 32004MPS 280V360 CAVOK 06/M04 Q1031 NOSIG
Conditions at: ZSNB (NINGBO/LISHE , CN) observed 0100 UTC 21 January 2019
Temperature: 6.0°C (43°F)
Dewpoint: -4.0°C (25°F) [RH = 49%]
Pressure (altimeter): 30.44 inches Hg (1031.0 mb)
Winds: from the NW (320 degrees) at 9 MPH (8 knots; 4.1 m/s)
Visibility: 6 or more miles (10+ km)
Ceiling: ceiling and visibility are OK
Clouds: unknown
Weather: no significant weather observed at this time

METAR text: ZSNB 210000Z 32003MPS CAVOK 03/M02 Q1031 NOSIG
Conditions at: ZSNB (NINGBO/LISHE , CN) observed 0000 UTC 21 January 2019
Temperature: 3.0°C (37°F)
Dewpoint: -2.0°C (28°F) [RH = 70%]
Pressure (altimeter): 30.44 inches Hg (1031.0 mb)
Winds: from the NW (320 degrees) at 7 MPH (6 knots; 3.1 m/s)
Visibility: 6 or more miles (10+ km)
Ceiling: ceiling and visibility are OK
Clouds: unknown
Weather: no significant weather observed at this time

METAR text: ZSNB 202300Z 32003MPS CAVOK 00/M03 Q1031 NOSIG
Conditions at: ZSNB (NINGBO/LISHE , CN) observed 2300 UTC 20 January 2019
Temperature: 0.0°C (32°F)
Dewpoint: -3.0°C (27°F) [RH = 80%]
Pressure (altimeter): 30.44 inches Hg (1031.0 mb)
Winds: from the NW (320 degrees) at 7 MPH (6 knots; 3.1 m/s)
Visibility: 6 or more miles (10+ km)
Ceiling: ceiling and visibility are OK
Clouds: unknown
Weather: no significant weather observed at this time

METAR text: ZSNB 202200Z 31002MPS CAVOK 01/M02 Q1030 NOSIG
Conditions at: ZSNB (NINGBO/LISHE , CN) observed 2200 UTC 20 January 2019
Temperature: 1.0°C (34°F)
Dewpoint: -2.0°C (28°F) [RH = 80%]
Pressure (altimeter): 30.41 inches Hg (1030.0 mb)
Winds: from the NW (310 degrees) at 5 MPH (4 knots; 2.1 m/s)
Visibility: 6 or more miles (10+ km)
Ceiling: ceiling and visibility are OK
Clouds: unknown
Weather: no significant weather observed at this time

METAR text: ZSNB 202100Z 31002MPS CAVOK 01/M02 Q1030 NOSIG
Conditions at: ZSNB (NINGBO/LISHE , CN) observed 2100 UTC 20 January 2019
Temperature: 1.0°C (34°F)
Dewpoint: -2.0°C (28°F) [RH = 80%]
Pressure (altimeter): 30.41 inches Hg (1030.0 mb)
Winds: from the NW (310 degrees) at 5 MPH (4 knots; 2.1 m/s)
Visibility: 6 or more miles (10+ km)
Ceiling: ceiling and visibility are OK
Clouds: unknown
Weather: no significant weather observed at this time

METAR text: ZSNB 202000Z VRB01MPS CAVOK 02/M01 Q1030 NOSIG
Conditions at: ZSNB (NINGBO/LISHE , CN) observed 2000 UTC 20 January 2019
Temperature: 2.0°C (36°F)
Dewpoint: -1.0°C (30°F) [RH = 80%]
Pressure (altimeter): 30.41 inches Hg (1030.0 mb)
Winds: variable direction winds at 2 MPH (2 knots; 1.0 m/s)
Visibility: 6 or more miles (10+ km)
Ceiling: ceiling and visibility are OK
Clouds: unknown
Weather: no significant weather observed at this time

METAR text: ZSNB 201900Z 33001MPS CAVOK 03/M00 Q1030 NOSIG
Conditions at: ZSNB (NINGBO/LISHE , CN) observed 1900 UTC 20 January 2019
Temperature: 3.0°C (37°F)
Dewpoint: 0.0°C (32°F) [RH = 81%]
Pressure (altimeter): 30.41 inches Hg (1030.0 mb)
Winds: from the NNW (330 degrees) at 2 MPH (2 knots; 1.0 m/s)
Visibility: 6 or more miles (10+ km)
Ceiling: ceiling and visibility are OK
Clouds: unknown
Weather: no significant weather observed at this time

METAR text: ZSNB 201800Z 35002MPS 310V020 CAVOK 04/M00 Q1030 NOSIG
Conditions at: ZSNB (NINGBO/LISHE , CN) observed 1800 UTC 20 January 2019
Temperature: 4.0°C (39°F)
Dewpoint: 0.0°C (32°F) [RH = 75%]
Pressure (altimeter): 30.41 inches Hg (1030.0 mb)
Winds: from the N (350 degrees) at 5 MPH (4 knots; 2.1 m/s)
Visibility: 6 or more miles (10+ km)
Ceiling: ceiling and visibility are OK
Clouds: unknown
Weather: no significant weather observed at this time

METAR text: ZSNB 201700Z 34002MPS CAVOK 04/M01 Q1031 NOSIG
Conditions at: ZSNB (NINGBO/LISHE , CN) observed 1700 UTC 20 January 2019
Temperature: 4.0°C (39°F)
Dewpoint: -1.0°C (30°F) [RH = 70%]
Pressure (altimeter): 30.44 inches Hg (1031.0 mb)
Winds: from the NNW (340 degrees) at 5 MPH (4 knots; 2.1 m/s)
Visibility: 6 or more miles (10+ km)
Ceiling: ceiling and visibility are OK
Clouds: unknown
Weather: no significant weather observed at this time

METAR text: ZSNB 201600Z 33002MPS CAVOK 04/M00 Q1032 NOSIG
Conditions at: ZSNB (NINGBO/LISHE , CN) observed 1600 UTC 20 January 2019
Temperature: 4.0°C (39°F)
Dewpoint: 0.0°C (32°F) [RH = 75%]
Pressure (altimeter): 30.47 inches Hg (1032.0 mb)
Winds: from the NNW (330 degrees) at 5 MPH (4 knots; 2.1 m/s)
Visibility: 6 or more miles (10+ km)
Ceiling: ceiling and visibility are OK
Clouds: unknown
Weather: no significant weather observed at this time

METAR text: ZSNB 201500Z 35003MPS CAVOK 05/M00 Q1031 NOSIG
Conditions at: ZSNB (NINGBO/LISHE , CN) observed 1500 UTC 20 January 2019
Temperature: 5.0°C (41°F)
Dewpoint: 0.0°C (32°F) [RH = 70%]
Pressure (altimeter): 30.44 inches Hg (1031.0 mb)
Winds: from the N (350 degrees) at 7 MPH (6 knots; 3.1 m/s)
Visibility: 6 or more miles (10+ km)
Ceiling: ceiling and visibility are OK
Clouds: unknown
Weather: no significant weather observed at this time

METAR text: ZSNB 201400Z 01004MPS 330V040 CAVOK 06/M00 Q1031 NOSIG
Conditions at: ZSNB (NINGBO/LISHE , CN) observed 1400 UTC 20 January 2019
Temperature: 6.0°C (43°F)
Dewpoint: 0.0°C (32°F) [RH = 65%]
Pressure (altimeter): 30.44 inches Hg (1031.0 mb)
Winds: from the N (10 degrees) at 9 MPH (8 knots; 4.1 m/s)
Visibility: 6 or more miles (10+ km)
Ceiling: ceiling and visibility are OK
Clouds: unknown
Weather: no significant weather observed at this time

METAR text: ZSNB 201300Z 36005MPS 9999 BKN040 07/M01 Q1031 NOSIG
Conditions at: ZSNB (NINGBO/LISHE , CN) observed 1300 UTC 20 January 2019
Temperature: 7.0°C (45°F)
Dewpoint: -1.0°C (30°F) [RH = 57%]
Pressure (altimeter): 30.44 inches Hg (1031.0 mb)
Winds: from the N (360 degrees) at 12 MPH (10 knots; 5.1 m/s)
Visibility: 6 or more miles (10+ km)
Ceiling: 4000 feet AGL
Clouds: broken clouds at 4000 feet AGL
Weather: no significant weather observed at this time

METAR text: ZSNB 201200Z 35003MPS 320V020 4000 HZ FEW033 07/00 Q1030 NOSIG
Conditions at: ZSNB (NINGBO/LISHE , CN) observed 1200 UTC 20 January 2019
Temperature: 7.0°C (45°F)
Dewpoint: 0.0°C (32°F) [RH = 61%]
Pressure (altimeter): 30.41 inches Hg (1030.0 mb)
Winds: from the N (350 degrees) at 7 MPH (6 knots; 3.1 m/s)
Visibility: 2.49 miles (4.01 km)
Ceiling: at least 12,000 feet AGL
Clouds: few clouds at 3300 feet AGL
Weather: HZ  (haze)

METAR text: ZSNB 201100Z 34004MPS 3500 HZ NSC 07/00 Q1030 NOSIG
Conditions at: ZSNB (NINGBO/LISHE , CN) observed 1100 UTC 20 January 2019
Temperature: 7.0°C (45°F)
Dewpoint: 0.0°C (32°F) [RH = 61%]
Pressure (altimeter): 30.41 inches Hg (1030.0 mb)
Winds: from the NNW (340 degrees) at 9 MPH (8 knots; 4.1 m/s)
Visibility: 2.17 miles (3.49 km)
Ceiling: at least 12,000 feet AGL
Clouds: sky clear below 12,000 feet AGL
Weather: HZ  (haze)

METAR text: ZSNB 201000Z 34004MPS 300V010 3500 HZ NSC 08/01 Q1029 NOSIG
Conditions at: ZSNB (NINGBO/LISHE , CN) observed 1000 UTC 20 January 2019
Temperature: 8.0°C (46°F)
Dewpoint: 1.0°C (34°F) [RH = 61%]
Pressure (altimeter): 30.38 inches Hg (1029.0 mb)
Winds: from the NNW (340 degrees) at 9 MPH (8 knots; 4.1 m/s)
Visibility: 2.17 miles (3.49 km)
Ceiling: at least 12,000 feet AGL
Clouds: sky clear below 12,000 feet AGL
Weather: HZ  (haze)

METAR text: ZSNB 200900Z 34005MPS 320V020 3500 HZ NSC 08/M00 Q1029 NOSIG
Conditions at: ZSNB (NINGBO/LISHE , CN) observed 0900 UTC 20 January 2019
Temperature: 8.0°C (46°F)
Dewpoint: 0.0°C (32°F) [RH = 57%]
Pressure (altimeter): 30.38 inches Hg (1029.0 mb)
Winds: from the NNW (340 degrees) at 12 MPH (10 knots; 5.1 m/s)
Visibility: 2.17 miles (3.49 km)
Ceiling: at least 12,000 feet AGL
Clouds: sky clear below 12,000 feet AGL
Weather: HZ  (haze)

METAR text: ZSNB 200800Z 34005MPS 310V020 4000 HZ NSC 09/M01 Q1028 NOSIG
Conditions at: ZSNB (NINGBO/LISHE , CN) observed 0800 UTC 20 January 2019
Temperature: 9.0°C (48°F)
Dewpoint: -1.0°C (30°F) [RH = 49%]
Pressure (altimeter): 30.35 inches Hg (1028.0 mb)
Winds: from the NNW (340 degrees) at 12 MPH (10 knots; 5.1 m/s)
Visibility: 2.49 miles (4.01 km)
Ceiling: at least 12,000 feet AGL
Clouds: sky clear below 12,000 feet AGL
Weather: HZ  (haze)

METAR text: ZSNB 200700Z 35005MPS 4000 HZ NSC 10/M02 Q1027 NOSIG
Conditions at: ZSNB (NINGBO/LISHE , CN) observed 0700 UTC 20 January 2019
Temperature: 10.0°C (50°F)
Dewpoint: -2.0°C (28°F) [RH = 43%]
Pressure (altimeter): 30.32 inches Hg (1027.0 mb)
Winds: from the N (350 degrees) at 12 MPH (10 knots; 5.1 m/s)
Visibility: 2.49 miles (4.01 km)
Ceiling: at least 12,000 feet AGL
Clouds: sky clear below 12,000 feet AGL
Weather: HZ  (haze)

METAR text: ZSNB 200600Z 34004MPS 310V020 3500 HZ NSC 10/00 Q1027 NOSIG
Conditions at: ZSNB (NINGBO/LISHE , CN) observed 0600 UTC 20 January 2019
Temperature: 10.0°C (50°F)
Dewpoint: 0.0°C (32°F) [RH = 50%]
Pressure (altimeter): 30.32 inches Hg (1027.0 mb)
Winds: from the NNW (340 degrees) at 9 MPH (8 knots; 4.1 m/s)
Visibility: 2.17 miles (3.49 km)
Ceiling: at least 12,000 feet AGL
Clouds: sky clear below 12,000 feet AGL
Weather: HZ  (haze)

METAR text: ZSNB 200500Z 33007MPS 3500 HZ NSC 09/00 Q1027 NOSIG
Conditions at: ZSNB (NINGBO/LISHE , CN) observed 0500 UTC 20 January 2019
Temperature: 9.0°C (48°F)
Dewpoint: 0.0°C (32°F) [RH = 53%]
Pressure (altimeter): 30.32 inches Hg (1027.0 mb)
Winds: from the NNW (330 degrees) at 16 MPH (14 knots; 7.2 m/s)
Visibility: 2.17 miles (3.49 km)
Ceiling: at least 12,000 feet AGL
Clouds: sky clear below 12,000 feet AGL
Weather: HZ  (haze)

METAR text: ZSNB 200400Z 33006MPS 300V020 3500 HZ NSC 10/01 Q1028 NOSIG
Conditions at: ZSNB (NINGBO/LISHE , CN) observed 0400 UTC 20 January 2019
Temperature: 10.0°C (50°F)
Dewpoint: 1.0°C (34°F) [RH = 53%]
Pressure (altimeter): 30.35 inches Hg (1028.0 mb)
Winds: from the NNW (330 degrees) at 14 MPH (12 knots; 6.2 m/s)
Visibility: 2.17 miles (3.49 km)
Ceiling: at least 12,000 feet AGL
Clouds: sky clear below 12,000 feet AGL
Weather: HZ  (haze)

METAR text: ZSNB 200300Z 33007MPS 3000 HZ BKN050 08/02 Q1029 NOSIG
Conditions at: ZSNB (NINGBO/LISHE , CN) observed 0300 UTC 20 January 2019
Temperature: 8.0°C (46°F)
Dewpoint: 2.0°C (36°F) [RH = 66%]
Pressure (altimeter): 30.38 inches Hg (1029.0 mb)
Winds: from the NNW (330 degrees) at 16 MPH (14 knots; 7.2 m/s)
Visibility: 1.86 miles (2.99 km)
Ceiling: 5000 feet AGL
Clouds: broken clouds at 5000 feet AGL
Weather: HZ  (haze)

METAR text: ZSNB 200200Z 35005MPS 310V010 3000 HZ OVC050 08/01 Q1029 NOSIG
Conditions at: ZSNB (NINGBO/LISHE , CN) observed 0200 UTC 20 January 2019
Temperature: 8.0°C (46°F)
Dewpoint: 1.0°C (34°F) [RH = 61%]
Pressure (altimeter): 30.38 inches Hg (1029.0 mb)
Winds: from the N (350 degrees) at 12 MPH (10 knots; 5.1 m/s)
Visibility: 1.86 miles (2.99 km)
Ceiling: 5000 feet AGL
Clouds: overcast cloud deck at 5000 feet AGL
Weather: HZ  (haze)

METAR text: ZSNB 200100Z 33005MPS 2800 HZ BKN016 07/02 Q1029 BECMG TL0230 3500
Conditions at: ZSNB (NINGBO/LISHE , CN) observed 0100 UTC 20 January 2019
Temperature: 7.0°C (45°F)
Dewpoint: 2.0°C (36°F) [RH = 70%]
Pressure (altimeter): 30.38 inches Hg (1029.0 mb)
Winds: from the NNW (330 degrees) at 12 MPH (10 knots; 5.1 m/s)
Visibility: 1.74 miles (2.80 km)
Ceiling: 1600 feet AGL
Clouds: broken clouds at 1600 feet AGL
Weather: HZ  (haze)

METAR text: ZSNB 200000Z 33005MPS 2500 BR BKN016 07/03 Q1028 BECMG TL0130 3000
Conditions at: ZSNB (NINGBO/LISHE , CN) observed 0000 UTC 20 January 2019
Temperature: 7.0°C (45°F)
Dewpoint: 3.0°C (37°F) [RH = 76%]
Pressure (altimeter): 30.35 inches Hg (1028.0 mb)
Winds: from the NNW (330 degrees) at 12 MPH (10 knots; 5.1 m/s)
Visibility: 1.55 miles (2.49 km)
Ceiling: 1600 feet AGL
Clouds: broken clouds at 1600 feet AGL
Weather: BR  (mist)

METAR text: ZSNB 192300Z 34005MPS 300V010 2500 BR BKN016 OVC050 07/04 Q1027 BECMG TL0030 3000
Conditions at: ZSNB (NINGBO/LISHE , CN) observed 2300 UTC 19 January 2019
Temperature: 7.0°C (45°F)
Dewpoint: 4.0°C (39°F) [RH = 81%]
Pressure (altimeter): 30.32 inches Hg (1027.0 mb)
Winds: from the NNW (340 degrees) at 12 MPH (10 knots; 5.1 m/s)
Visibility: 1.55 miles (2.49 km)
Ceiling: 1600 feet AGL
Clouds: broken clouds at 1600 feet AGL
overcast cloud deck at 5000 feet AGL
Weather: BR  (mist)

METAR text: ZSNB 192200Z 33005MPS 3500 BR BKN016 OVC050 07/04 Q1026 NOSIG
Conditions at: ZSNB (NINGBO/LISHE , CN) observed 2200 UTC 19 January 2019
Temperature: 7.0°C (45°F)
Dewpoint: 4.0°C (39°F) [RH = 81%]
Pressure (altimeter): 30.30 inches Hg (1026.0 mb)
Winds: from the NNW (330 degrees) at 12 MPH (10 knots; 5.1 m/s)
Visibility: 2.17 miles (3.49 km)
Ceiling: 1600 feet AGL
Clouds: broken clouds at 1600 feet AGL
overcast cloud deck at 5000 feet AGL
Weather: BR  (mist)

METAR text: ZSNB 192100Z 33004MPS 290V360 3500 BR BKN016 OVC050 07/04 Q1026 NOSIG
Conditions at: ZSNB (NINGBO/LISHE , CN) observed 2100 UTC 19 January 2019
Temperature: 7.0°C (45°F)
Dewpoint: 4.0°C (39°F) [RH = 81%]
Pressure (altimeter): 30.30 inches Hg (1026.0 mb)
Winds: from the NNW (330 degrees) at 9 MPH (8 knots; 4.1 m/s)
Visibility: 2.17 miles (3.49 km)
Ceiling: 1600 feet AGL
Clouds: broken clouds at 1600 feet AGL
overcast cloud deck at 5000 feet AGL
Weather: BR  (mist)

METAR text: ZSNB 192000Z 33005MPS 4000 BR BKN016 OVC050 08/04 Q1026 NOSIG
Conditions at: ZSNB (NINGBO/LISHE , CN) observed 2000 UTC 19 January 2019
Temperature: 8.0°C (46°F)
Dewpoint: 4.0°C (39°F) [RH = 76%]
Pressure (altimeter): 30.30 inches Hg (1026.0 mb)
Winds: from the NNW (330 degrees) at 12 MPH (10 knots; 5.1 m/s)
Visibility: 2.49 miles (4.01 km)
Ceiling: 1600 feet AGL
Clouds: broken clouds at 1600 feet AGL
overcast cloud deck at 5000 feet AGL
Weather: BR  (mist)

METAR text: ZSNB 191900Z 33005MPS 300V360 4000 BR BKN016 OVC050 08/05 Q1025 NOSIG
Conditions at: ZSNB (NINGBO/LISHE , CN) observed 1900 UTC 19 January 2019
Temperature: 8.0°C (46°F)
Dewpoint: 5.0°C (41°F) [RH = 81%]
Pressure (altimeter): 30.27 inches Hg (1025.0 mb)
Winds: from the NNW (330 degrees) at 12 MPH (10 knots; 5.1 m/s)
Visibility: 2.49 miles (4.01 km)
Ceiling: 1600 feet AGL
Clouds: broken clouds at 1600 feet AGL
overcast cloud deck at 5000 feet AGL
Weather: BR  (mist)

METAR text: ZSNB 191800Z 34004MPS 310V010 4000 BR BKN016 OVC050 08/05 Q1025 NOSIG
Conditions at: ZSNB (NINGBO/LISHE , CN) observed 1800 UTC 19 January 2019
Temperature: 8.0°C (46°F)
Dewpoint: 5.0°C (41°F) [RH = 81%]
Pressure (altimeter): 30.27 inches Hg (1025.0 mb)
Winds: from the NNW (340 degrees) at 9 MPH (8 knots; 4.1 m/s)
Visibility: 2.49 miles (4.01 km)
Ceiling: 1600 feet AGL
Clouds: broken clouds at 1600 feet AGL
overcast cloud deck at 5000 feet AGL
Weather: BR  (mist)

Forecast for: ZSNB (NINGBO/LISHE , CN)
Text: TAF ZSNB 210209Z 2106/2206 36005MPS 5000 BR SCT030 TX11/2106Z TN00/2121Z
Forecast period: 0600 UTC 21 January 2019 to 0600 UTC 22 January 2019
Forecast type: FROM: standard forecast or significant change
Winds: from the N (360 degrees) at 12 MPH (10 knots; 5.1 m/s)
Visibility: 3 miles (5 km)
Ceiling: at least 12,000 feet AGL
Clouds: scattered clouds at 3000 feet AGL
Weather: BR  (mist)